Terminal Aerodrome Forecast
Issued by NWS

Home | Current Version | Previous Version | Graphics & Text | Print | Product List | Glossary On
Versions: 1 2 3 4 5 6 7 8 9 10 11 12
000
FTUS43 KGRB 132300
TAFATW
TAF
KATW 132335Z 1400/1424 23004KT P6SM BKN050
     FM140200 VRB03KT P6SM FEW050
     FM140900 21003KT P6SM FEW050 SCT100
     FM141200 22006KT P6SM SCT100 BKN200
     FM141500 22010G16KT P6SM SCT090 BKN120=

USA.gov is the U.S. government's official web portal to all federal, state and local government web resources and services.